Time;durP1;ratioP1;P1;durP2;ratioP2;P2;SDS_P1;SDS_P2;PMS_P1;PMS_P2;Temp;Humidity;BMP_temperature;BMP_pressure;BME280_temperature;BME280_humidity;BME280_pressure;Samples;Min_cycle;Max_cycle;Signal;HPM_P1;HPM_P2
2022/12/17 13:06:03;;;;;;;;;;;0.30;99.90;;;;;;5065532;28;19925;-77
2022/12/17 13:08:29;;;;;;;;;;;0.20;99.90;;;;;;5062965;28;20378;-79
2022/12/17 13:10:55;;;;;;;;;;;0.30;99.90;;;;;;5066407;28;19972;-78
2022/12/17 13:13:28;;;;;;;;;;;0.20;99.90;;;;;;5066679;28;20359;-78
2022/12/17 13:15:56;;;;;;;;;;;0.30;99.90;;;;;;5064963;28;19931;-77
2022/12/17 13:18:21;;;;;;;;;;;0.30;99.90;;;;;;5063335;28;19940;-78
2022/12/17 13:20:58;;;;;;;;;;;0.30;99.90;;;;;;5071671;28;20348;-78
2022/12/17 13:23:29;;;;;;;;;;;0.20;99.90;;;;;;5061979;28;20383;-77
2022/12/17 13:26:12;;;;;;;;;;;0.20;99.90;;;;;;5070549;28;19970;-78
2022/12/17 13:28:38;;;;;;;;;;;0.10;99.90;;;;;;5050960;28;20368;-78
2022/12/17 13:31:12;;;;;;;;;;;0.10;99.90;;;;;;5055219;28;19970;-78
2022/12/17 13:33:57;;;;;;;;;;;0.00;99.90;;;;;;5063461;28;19967;-78
2022/12/17 13:36:22;;;;;;;;;;;0.10;99.90;;;;;;5061469;28;19931;-80
2022/12/17 13:38:53;;;;;;;;;;;0.20;99.90;;;;;;5072342;28;19924;-78
2022/12/17 13:41:20;;;;;;;;;;;0.10;99.90;;;;;;5064513;28;19940;-78
2022/12/17 13:43:51;;;;;;;;;;;0.00;99.90;;;;;;5067372;28;20369;-77
2022/12/17 13:46:19;;;;;;;;;;;0.00;99.90;;;;;;5044627;28;20007;-77
2022/12/17 13:48:51;;;;;;;;;;;-0.10;99.90;;;;;;5065652;28;20368;-78
2022/12/17 13:51:18;;;;;;;;;;;-0.10;99.90;;;;;;5058534;28;20298;-78
2022/12/17 13:53:50;;;;;;;;;;;-0.10;99.90;;;;;;5057724;28;20334;-77
2022/12/17 13:56:20;;;;;;;;;;;-0.10;99.90;;;;;;5057944;28;20025;-77
2022/12/17 13:58:49;;;;;;;;;;;-0.10;99.90;;;;;;5058452;28;19924;-78
2022/12/17 14:01:15;;;;;;;;;;;-0.20;99.90;;;;;;5059823;28;20016;-78
2022/12/17 14:03:42;;;;;;;;;;;-0.20;99.90;;;;;;5060176;28;20035;-78
2022/12/17 14:06:09;;;;;;;;;;;-0.20;99.90;;;;;;5060942;28;19931;-78
2022/12/17 14:08:35;;;;;;;;;;;-0.20;99.90;;;;;;5057409;28;19924;-77
2022/12/17 14:13:46;;;;;;;;;;;-0.30;99.90;;;;;;5069417;28;19924;-77
2022/12/17 14:16:15;;;;;;;;;;;-0.30;99.90;;;;;;5070925;28;19924;-79
2022/12/17 14:18:43;;;;;;;;;;;-0.30;99.90;;;;;;5070825;28;19929;-77
2022/12/17 14:21:09;;;;;;;;;;;-0.40;99.90;;;;;;5056086;28;19924;-78
2022/12/17 14:23:35;;;;;;;;;;;-0.40;99.90;;;;;;5068610;28;20050;-83
2022/12/17 14:26:00;;;;;;;;;;;-0.40;99.90;;;;;;5056671;28;19952;-77
2022/12/17 14:28:33;;;;;;;;;;;-0.50;99.90;;;;;;5063110;28;19928;-77
2022/12/17 14:31:06;;;;;;;;;;;-0.50;99.90;;;;;;5069118;28;19924;-77
2022/12/17 14:33:36;;;;;;;;;;;-0.50;99.90;;;;;;5071017;28;20351;-81
2022/12/17 14:36:04;;;;;;;;;;;-0.50;99.90;;;;;;5066116;28;19929;-77
2022/12/17 14:38:29;;;;;;;;;;;-0.50;99.90;;;;;;5067535;28;20492;-77
2022/12/17 14:41:00;;;;;;;;;;;-0.50;99.90;;;;;;5068753;28;20038;-79
2022/12/17 14:43:27;;;;;;;;;;;-0.50;99.90;;;;;;5074550;28;20256;-77
2022/12/17 14:49:00;;;;;;;;;;;-0.50;99.90;;;;;;5056515;28;19936;-77
2022/12/17 14:51:30;;;;;;;;;;;-0.60;99.90;;;;;;5072368;28;19925;-76
2022/12/17 14:54:06;;;;;;;;;;;-0.60;99.90;;;;;;5079760;28;19978;-77
2022/12/17 14:56:34;;;;;;;;;;;-0.60;99.90;;;;;;5078417;28;20014;-76
2022/12/17 14:59:01;;;;;;;;;;;-0.60;99.90;;;;;;5076335;28;19972;-77
2022/12/17 15:01:26;;;;;;;;;;;-0.70;99.90;;;;;;5082987;28;19935;-76
2022/12/17 15:03:52;;;;;;;;;;;-0.70;99.90;;;;;;5075953;28;19925;-77
2022/12/17 15:06:18;;;;;;;;;;;-0.70;99.90;;;;;;5076778;28;20406;-76
2022/12/17 15:08:46;;;;;;;;;;;-0.80;99.90;;;;;;5070185;28;19933;-78
2022/12/17 15:11:12;;;;;;;;;;;-0.80;99.90;;;;;;5066195;28;20394;-80
2022/12/17 15:13:38;;;;;;;;;;;-0.90;99.90;;;;;;5076577;28;19943;-77
2022/12/17 15:16:04;;;;;;;;;;;-0.80;99.90;;;;;;5062018;28;19925;-77
2022/12/17 15:18:29;;;;;;;;;;;-0.80;99.90;;;;;;5074919;28;20013;-77
2022/12/17 15:20:55;;;;;;;;;;;-0.90;99.90;;;;;;5074195;28;19942;-77
2022/12/17 15:23:21;;;;;;;;;;;-0.90;99.90;;;;;;5057041;28;19970;-77
2022/12/17 15:25:48;;;;;;;;;;;-0.90;99.90;;;;;;5074617;28;19933;-81
2022/12/17 15:28:14;;;;;;;;;;;-0.90;99.90;;;;;;5074711;28;20011;-77
2022/12/17 15:30:40;;;;;;;;;;;-0.90;99.90;;;;;;5073933;28;19932;-77
2022/12/17 15:33:06;;;;;;;;;;;-0.80;99.90;;;;;;5073139;28;19954;-78
2022/12/17 15:35:32;;;;;;;;;;;-0.90;99.90;;;;;;5063474;28;19952;-77
2022/12/17 15:37:57;;;;;;;;;;;-0.90;99.90;;;;;;5068277;28;19925;-77
2022/12/17 15:40:23;;;;;;;;;;;-0.90;99.90;;;;;;5060081;28;19970;-77
2022/12/17 15:45:33;;;;;;;;;;;-1.00;99.90;;;;;;5095270;28;19928;-77
2022/12/17 15:47:59;;;;;;;;;;;-1.00;99.90;;;;;;5069346;28;19940;-77
2022/12/17 15:50:24;;;;;;;;;;;-1.00;99.90;;;;;;5073051;28;19931;-77
2022/12/17 15:52:50;;;;;;;;;;;-1.10;99.90;;;;;;5073264;28;20015;-78
2022/12/17 15:55:15;;;;;;;;;;;-1.10;99.90;;;;;;5072099;28;20393;-79
2022/12/17 15:57:41;;;;;;;;;;;-1.10;99.90;;;;;;5071946;28;20406;-77
2022/12/17 16:00:07;;;;;;;;;;;-1.10;99.90;;;;;;5065685;28;19932;-78
2022/12/17 16:02:32;;;;;;;;;;;-1.10;99.90;;;;;;5065919;28;19924;-80
2022/12/17 16:04:58;;;;;;;;;;;-1.10;99.90;;;;;;5060658;28;19929;-77
2022/12/17 16:07:23;;;;;;;;;;;-1.20;99.90;;;;;;5058258;28;19986;-83
2022/12/17 16:09:49;;;;;;;;;;;-1.20;99.90;;;;;;5074473;28;19928;-78
2022/12/17 16:12:14;;;;;;;;;;;-1.10;99.90;;;;;;5079285;28;19939;-80
2022/12/17 16:14:40;;;;;;;;;;;-1.20;99.90;;;;;;5069473;28;19932;-80
2022/12/17 16:17:05;;;;;;;;;;;-1.20;99.90;;;;;;5067312;28;20012;-78
2022/12/17 16:19:31;;;;;;;;;;;-1.30;99.90;;;;;;5068878;28;19955;-79
2022/12/17 16:21:56;;;;;;;;;;;-1.20;99.90;;;;;;5031899;28;19940;-77
2022/12/17 16:25:26;;;;;;;;;;;-1.30;99.90;;;;;;5070947;28;19920;-77
2022/12/17 16:27:51;;;;;;;;;;;-1.30;99.90;;;;;;5063801;28;19939;-79
2022/12/17 16:30:17;;;;;;;;;;;-1.30;99.90;;;;;;5076896;28;19956;-83
2022/12/17 16:32:43;;;;;;;;;;;-1.40;99.90;;;;;;5081805;28;19935;-79
2022/12/17 16:35:09;;;;;;;;;;;-1.40;99.90;;;;;;5058112;28;20434;-79
2022/12/17 16:37:34;;;;;;;;;;;-1.40;99.90;;;;;;5061213;28;19991;-78
2022/12/17 16:40:00;;;;;;;;;;;-1.40;99.90;;;;;;5077333;28;20384;-78
2022/12/17 16:42:25;;;;;;;;;;;-1.40;99.90;;;;;;5063123;28;19932;-81
2022/12/17 16:44:51;;;;;;;;;;;-1.40;99.90;;;;;;5051670;28;19979;-81
2022/12/17 16:47:16;;;;;;;;;;;-1.40;99.90;;;;;;5072952;28;20323;-77
2022/12/17 16:49:42;;;;;;;;;;;-1.40;99.90;;;;;;5055705;28;19929;-81
2022/12/17 16:52:07;;;;;;;;;;;-1.50;99.90;;;;;;5062689;28;19929;-85
2022/12/17 16:54:33;;;;;;;;;;;-1.50;99.90;;;;;;5063926;28;20004;-79
2022/12/17 16:56:59;;;;;;;;;;;-1.50;99.90;;;;;;5062402;28;20284;-79
2022/12/17 16:59:24;;;;;;;;;;;-1.60;99.90;;;;;;5081023;28;19932;-78
2022/12/17 17:01:50;;;;;;;;;;;-1.50;99.90;;;;;;5051486;28;19931;-79
2022/12/17 17:04:17;;;;;;;;;;;-1.50;99.90;;;;;;5066600;28;19936;-79
2022/12/17 17:06:44;;;;;;;;;;;-1.60;99.90;;;;;;5049309;28;19925;-82
2022/12/17 17:09:10;;;;;;;;;;;-1.60;99.90;;;;;;5052943;28;20681;-79
2022/12/17 17:11:35;;;;;;;;;;;-1.70;99.90;;;;;;5064077;28;20275;-79
2022/12/17 17:14:01;;;;;;;;;;;-1.70;99.90;;;;;;5064347;28;19925;-77
2022/12/17 17:16:27;;;;;;;;;;;-1.70;99.90;;;;;;5064789;28;20322;-79
2022/12/17 17:18:53;;;;;;;;;;;-1.70;99.90;;;;;;5061754;28;19932;-80
2022/12/17 17:21:18;;;;;;;;;;;-1.80;99.90;;;;;;5061016;28;19957;-79
2022/12/17 17:24:00;;;;;;;;;;;-1.80;99.90;;;;;;5065223;28;19924;-80
2022/12/17 17:26:27;;;;;;;;;;;-1.80;99.90;;;;;;5063858;28;19936;-78
2022/12/17 17:28:52;;;;;;;;;;;-1.80;99.90;;;;;;5067672;28;19925;-78
2022/12/17 17:31:18;;;;;;;;;;;-1.70;99.90;;;;;;5066672;28;19969;-78
2022/12/17 17:33:45;;;;;;;;;;;-1.70;99.90;;;;;;5060513;28;19935;-78
2022/12/17 17:36:19;;;;;;;;;;;-1.80;99.90;;;;;;5056011;28;19932;-78
2022/12/17 17:38:45;;;;;;;;;;;-1.80;99.90;;;;;;5033726;28;19995;-78
2022/12/17 17:41:12;;;;;;;;;;;-1.80;99.90;;;;;;5048420;28;19925;-78
2022/12/17 17:43:38;;;;;;;;;;;-1.80;99.90;;;;;;5037190;28;19956;-78
2022/12/17 17:46:07;;;;;;;;;;;-1.80;99.90;;;;;;5045867;28;19929;-80
2022/12/17 17:48:33;;;;;;;;;;;-1.80;99.90;;;;;;5044414;28;19990;-78
2022/12/17 17:51:19;;;;;;;;;;;-1.80;99.90;;;;;;5049323;28;20375;-80
2022/12/17 17:53:49;;;;;;;;;;;-1.90;99.90;;;;;;5045559;28;21291;-80
2022/12/17 17:56:16;;;;;;;;;;;-1.90;99.90;;;;;;5050507;28;19925;-78
2022/12/17 17:58:43;;;;;;;;;;;-1.90;99.90;;;;;;5047296;28;19935;-78
2022/12/17 18:01:09;;;;;;;;;;;-1.90;99.90;;;;;;5052727;28;20532;-80
2022/12/17 18:03:36;;;;;;;;;;;-1.90;99.90;;;;;;5045630;28;20372;-79
2022/12/17 18:06:02;;;;;;;;;;;-1.90;99.90;;;;;;5050183;28;19995;-78
2022/12/17 18:08:29;;;;;;;;;;;-1.90;99.90;;;;;;5038357;28;19948;-79
2022/12/17 18:10:55;;;;;;;;;;;-1.90;99.90;;;;;;5061171;28;19926;-79
2022/12/17 18:16:05;;;;;;;;;;;-1.80;99.90;;;;;;5045518;28;19955;-79
2022/12/17 18:18:31;;;;;;;;;;;-1.80;99.90;;;;;;5035983;28;20376;-79
2022/12/17 18:21:07;;;;;;;;;;;-1.80;99.90;;;;;;5038656;28;20180;-78
2022/12/17 18:23:33;;;;;;;;;;;-1.80;99.90;;;;;;5034727;28;19925;-79
2022/12/17 18:26:09;;;;;;;;;;;-1.80;99.90;;;;;;5052247;28;19925;-78
2022/12/17 18:28:35;;;;;;;;;;;-1.80;99.90;;;;;;5068335;28;19929;-80
2022/12/17 18:31:14;;;;;;;;;;;-1.80;99.90;;;;;;5050812;28;19925;-80
2022/12/17 18:33:41;;;;;;;;;;;-1.80;99.90;;;;;;5041346;28;19929;-78
2022/12/17 18:36:08;;;;;;;;;;;-1.80;99.90;;;;;;5039647;28;19939;-79
2022/12/17 18:38:34;;;;;;;;;;;-1.80;99.90;;;;;;5067864;28;19932;-78
2022/12/17 18:43:21;;;;;;;;;;;-1.90;99.90;;;;;;5055426;28;19925;-81
2022/12/17 18:43:52;;;;;;;;;;;-1.80;99.90;;;;;;5062517;28;19971;-79
2022/12/17 18:46:17;;;;;;;;;;;-1.90;99.90;;;;;;5046068;28;19990;-78
2022/12/17 18:48:43;;;;;;;;;;;-1.90;99.90;;;;;;5046757;28;19986;-78
2022/12/17 18:51:08;;;;;;;;;;;-1.90;99.90;;;;;;5047943;28;19932;-78
2022/12/17 18:53:34;;;;;;;;;;;-1.80;99.90;;;;;;5065904;28;19925;-79
2022/12/17 18:56:05;;;;;;;;;;;-2.00;99.90;;;;;;5052089;28;19932;-78
2022/12/17 18:58:31;;;;;;;;;;;-2.00;99.90;;;;;;5052940;28;20241;-78
2022/12/17 19:00:56;;;;;;;;;;;-2.00;99.90;;;;;;5051140;28;20402;-82
2022/12/17 19:03:22;;;;;;;;;;;-2.10;99.90;;;;;;5041401;28;19933;-78
2022/12/17 19:05:47;;;;;;;;;;;-2.10;99.90;;;;;;5043531;28;19925;-82
2022/12/17 19:08:13;;;;;;;;;;;-2.10;99.90;;;;;;5045172;28;20383;-78
2022/12/17 19:10:39;;;;;;;;;;;-2.10;99.90;;;;;;5062451;28;20292;-78
2022/12/17 19:13:04;;;;;;;;;;;-2.10;99.90;;;;;;5067324;28;19990;-78
2022/12/17 19:15:30;;;;;;;;;;;-2.10;99.90;;;;;;5042282;28;20071;-78
2022/12/17 19:17:55;;;;;;;;;;;-2.10;99.90;;;;;;5043109;28;19939;-80
2022/12/17 19:20:21;;;;;;;;;;;-2.10;99.90;;;;;;5060260;28;19951;-79
2022/12/17 19:22:46;;;;;;;;;;;-2.10;99.90;;;;;;5053256;28;19950;-80
2022/12/17 19:25:12;;;;;;;;;;;-2.10;99.90;;;;;;5051064;28;19933;-81
2022/12/17 19:27:38;;;;;;;;;;;-2.20;99.90;;;;;;5047155;28;19924;-79
2022/12/17 19:30:04;;;;;;;;;;;-2.20;99.90;;;;;;5055486;28;19929;-78
2022/12/17 19:32:30;;;;;;;;;;;-2.20;99.90;;;;;;5060034;28;19924;-78
2022/12/17 19:34:55;;;;;;;;;;;-2.20;99.90;;;;;;5049383;28;19933;-78
2022/12/17 19:37:21;;;;;;;;;;;-2.30;99.90;;;;;;5052761;28;19950;-80
2022/12/17 19:39:47;;;;;;;;;;;-2.30;99.90;;;;;;5050121;28;20296;-80
2022/12/17 19:42:23;;;;;;;;;;;-2.30;99.90;;;;;;5046061;28;19994;-78
2022/12/17 19:44:57;;;;;;;;;;;-2.30;99.90;;;;;;5066123;28;20406;-78
2022/12/17 19:47:23;;;;;;;;;;;-2.30;99.90;;;;;;5051201;28;20036;-79
2022/12/17 19:49:49;;;;;;;;;;;-2.30;99.90;;;;;;5057888;28;20427;-78
2022/12/17 19:52:14;;;;;;;;;;;-2.30;99.90;;;;;;5047907;28;20028;-79
2022/12/17 19:54:40;;;;;;;;;;;-2.30;99.90;;;;;;5059864;28;19959;-78
2022/12/17 19:57:05;;;;;;;;;;;-2.30;99.90;;;;;;5045488;28;19932;-80
2022/12/17 19:59:31;;;;;;;;;;;-2.30;99.90;;;;;;5049945;28;19971;-78
2022/12/17 20:01:56;;;;;;;;;;;-2.30;99.90;;;;;;5049810;28;19978;-79
2022/12/17 20:04:22;;;;;;;;;;;-2.30;99.90;;;;;;5049755;28;20368;-79
2022/12/17 20:06:48;;;;;;;;;;;-2.20;99.90;;;;;;5051273;28;19925;-79
2022/12/17 20:09:16;;;;;;;;;;;-2.20;99.90;;;;;;5027271;28;19932;-79
2022/12/17 20:11:41;;;;;;;;;;;-2.30;99.90;;;;;;5041434;28;20043;-78
2022/12/17 20:14:14;;;;;;;;;;;-2.30;99.90;;;;;;5063379;28;20447;-79
2022/12/17 20:16:43;;;;;;;;;;;-2.30;99.90;;;;;;5066009;28;19955;-80
2022/12/17 20:19:17;;;;;;;;;;;-2.30;99.90;;;;;;5035830;28;20312;-79
2022/12/17 20:21:42;;;;;;;;;;;-2.30;99.90;;;;;;5050816;28;19928;-78
2022/12/17 20:24:08;;;;;;;;;;;-2.30;99.90;;;;;;5049403;28;20347;-78
2022/12/17 20:26:35;;;;;;;;;;;-2.30;99.90;;;;;;5043932;28;20059;-78
2022/12/17 20:29:01;;;;;;;;;;;-2.40;99.90;;;;;;5040744;28;20334;-81
2022/12/17 20:31:27;;;;;;;;;;;-2.40;99.90;;;;;;5036472;28;19929;-80
2022/12/17 20:33:52;;;;;;;;;;;-2.40;99.90;;;;;;5041982;28;19925;-78
2022/12/17 20:36:18;;;;;;;;;;;-2.40;99.90;;;;;;5038682;28;20043;-80
2022/12/17 20:38:44;;;;;;;;;;;-2.50;99.90;;;;;;5052456;28;19986;-78
2022/12/17 20:41:11;;;;;;;;;;;-2.40;99.90;;;;;;5040702;28;20379;-80
2022/12/17 20:43:36;;;;;;;;;;;-2.40;99.90;;;;;;5038006;28;19933;-79
2022/12/17 20:46:02;;;;;;;;;;;-2.40;99.90;;;;;;5041172;28;19929;-79
2022/12/17 20:48:27;;;;;;;;;;;-2.40;99.90;;;;;;5053389;28;19925;-80
2022/12/17 20:50:53;;;;;;;;;;;-2.40;99.90;;;;;;5052607;28;19925;-78
2022/12/17 20:53:19;;;;;;;;;;;-2.50;99.90;;;;;;5050344;28;20335;-80
2022/12/17 20:55:44;;;;;;;;;;;-2.50;99.90;;;;;;5054578;28;19933;-79
2022/12/17 20:58:12;;;;;;;;;;;-2.50;99.90;;;;;;5044480;28;19925;-79
2022/12/17 21:00:38;;;;;;;;;;;-2.50;99.90;;;;;;5048411;28;19925;-78
2022/12/17 21:03:04;;;;;;;;;;;-2.50;99.90;;;;;;5061730;28;19924;-80
2022/12/17 21:05:29;;;;;;;;;;;-2.50;99.90;;;;;;5050461;28;19983;-78
2022/12/17 21:07:55;;;;;;;;;;;-2.50;99.90;;;;;;5037412;28;20011;-79
2022/12/17 21:10:21;;;;;;;;;;;-2.50;99.90;;;;;;5035315;28;20291;-81
2022/12/17 21:15:31;;;;;;;;;;;-2.60;99.90;;;;;;5040079;28;19925;-79
2022/12/17 21:17:56;;;;;;;;;;;-2.50;99.90;;;;;;5058305;28;19929;-79
2022/12/17 21:20:22;;;;;;;;;;;-2.50;99.90;;;;;;5033002;28;19978;-78
2022/12/17 21:22:47;;;;;;;;;;;-2.50;99.90;;;;;;5065867;28;20307;-79
2022/12/17 21:25:13;;;;;;;;;;;-2.50;99.90;;;;;;5062651;28;20387;-79
2022/12/17 21:27:38;;;;;;;;;;;-2.50;99.90;;;;;;5065844;28;19977;-80
2022/12/17 21:30:04;;;;;;;;;;;-2.40;99.90;;;;;;5069972;28;19928;-78
2022/12/17 21:32:30;;;;;;;;;;;-2.50;99.90;;;;;;5072019;28;20442;-79
2022/12/17 21:34:55;;;;;;;;;;;-2.50;99.90;;;;;;5073633;28;19928;-78
2022/12/17 21:37:21;;;;;;;;;;;-2.50;99.90;;;;;;5071316;28;19931;-80
2022/12/17 21:39:46;;;;;;;;;;;-2.50;99.90;;;;;;5070587;28;19924;-78
2022/12/17 21:44:56;;;;;;;;;;;-2.60;99.90;;;;;;5062000;28;20456;-78
2022/12/17 21:47:22;;;;;;;;;;;-2.60;99.90;;;;;;5070471;28;19932;-78
2022/12/17 21:49:48;;;;;;;;;;;-2.70;99.90;;;;;;5041521;28;19929;-79
2022/12/17 21:52:13;;;;;;;;;;;-2.60;99.90;;;;;;5055235;28;20284;-79
2022/12/17 21:54:39;;;;;;;;;;;-2.70;99.90;;;;;;5073987;28;19968;-79
2022/12/17 21:57:04;;;;;;;;;;;-2.60;99.90;;;;;;5049021;28;19932;-79
2022/12/17 21:59:30;;;;;;;;;;;-2.70;99.90;;;;;;5067130;28;20412;-78
2022/12/17 22:01:56;;;;;;;;;;;-2.70;99.90;;;;;;5044004;28;20085;-77
2022/12/17 22:04:22;;;;;;;;;;;-2.70;99.90;;;;;;5055048;28;20390;-78
2022/12/17 22:06:47;;;;;;;;;;;-2.60;99.90;;;;;;5060738;28;19929;-78
2022/12/17 22:09:13;;;;;;;;;;;-2.60;99.90;;;;;;5074768;28;19924;-79
2022/12/17 22:11:39;;;;;;;;;;;-2.70;99.90;;;;;;5045958;28;19985;-78
2022/12/17 22:14:05;;;;;;;;;;;-2.70;99.90;;;;;;5070956;28;19934;-79
2022/12/17 22:16:41;;;;;;;;;;;-2.80;99.90;;;;;;5057147;28;19954;-78
2022/12/17 22:19:11;;;;;;;;;;;-2.80;99.90;;;;;;5026837;28;19931;-78
2022/12/17 22:21:38;;;;;;;;;;;-2.80;99.90;;;;;;5057186;28;20363;-78
2022/12/17 22:24:04;;;;;;;;;;;-2.80;99.90;;;;;;5048576;28;20230;-78
2022/12/17 22:26:30;;;;;;;;;;;-2.80;99.90;;;;;;5055474;28;20023;-79
2022/12/17 22:28:55;;;;;;;;;;;-2.90;99.90;;;;;;5055879;28;19925;-79
2022/12/17 22:34:07;;;;;;;;;;;-3.00;99.90;;;;;;5071507;28;19974;-78
2022/12/17 22:36:32;;;;;;;;;;;-3.00;99.90;;;;;;5051752;28;19925;-78
2022/12/17 22:38:59;;;;;;;;;;;-3.00;99.90;;;;;;5065332;28;19924;-78
2022/12/17 22:44:08;;;;;;;;;;;-2.90;99.90;;;;;;5072820;28;20359;-79
2022/12/17 22:46:34;;;;;;;;;;;-3.00;99.90;;;;;;5022795;28;19925;-79
2022/12/17 22:48:59;;;;;;;;;;;-3.00;99.90;;;;;;5061075;28;19973;-77
2022/12/17 22:51:25;;;;;;;;;;;-3.00;99.90;;;;;;5052292;28;19929;-78
2022/12/17 22:53:51;;;;;;;;;;;-3.00;99.90;;;;;;5062267;28;19947;-77
2022/12/17 22:56:17;;;;;;;;;;;-3.00;99.90;;;;;;5072833;28;20382;-78
2022/12/17 22:58:43;;;;;;;;;;;-3.00;99.90;;;;;;5030772;28;19925;-79
2022/12/17 23:01:08;;;;;;;;;;;-3.10;99.90;;;;;;5071031;28;19925;-79
2022/12/17 23:03:34;;;;;;;;;;;-3.00;99.90;;;;;;5034901;28;19976;-78
2022/12/17 23:06:10;;;;;;;;;;;-3.00;99.90;;;;;;5066587;28;19928;-83
2022/12/17 23:08:36;;;;;;;;;;;-3.00;99.90;;;;;;5058810;28;19928;-79
2022/12/17 23:11:06;;;;;;;;;;;-3.00;99.90;;;;;;5058258;28;20313;-79
2022/12/17 23:13:31;;;;;;;;;;;-3.00;99.90;;;;;;5051098;28;19967;-80
2022/12/17 23:15:57;;;;;;;;;;;-3.00;99.90;;;;;;5064241;28;19928;-79
2022/12/17 23:18:23;;;;;;;;;;;-3.10;99.90;;;;;;5045742;28;20400;-80
2022/12/17 23:20:49;;;;;;;;;;;-2.90;99.90;;;;;;5065973;28;20276;-78
2022/12/17 23:23:14;;;;;;;;;;;-3.20;99.90;;;;;;5042428;28;19932;-78
2022/12/17 23:25:40;;;;;;;;;;;-3.20;99.90;;;;;;5043346;28;19932;-79
2022/12/17 23:28:12;;;;;;;;;;;-3.30;99.90;;;;;;5051950;28;20295;-80
2022/12/17 23:30:37;;;;;;;;;;;-3.40;99.90;;;;;;5068508;28;19931;-78
2022/12/17 23:33:03;;;;;;;;;;;-3.40;99.90;;;;;;5032459;28;20421;-79
2022/12/17 23:35:29;;;;;;;;;;;-3.40;99.90;;;;;;5044231;28;19932;-79
2022/12/17 23:37:54;;;;;;;;;;;-3.40;99.90;;;;;;5034928;28;19925;-81
2022/12/17 23:40:20;;;;;;;;;;;-3.50;99.90;;;;;;5050586;28;19932;-79
2022/12/17 23:42:46;;;;;;;;;;;-3.50;99.90;;;;;;5051265;28;19928;-78
2022/12/17 23:45:12;;;;;;;;;;;-3.50;99.90;;;;;;5035459;28;19947;-79
2022/12/17 23:47:38;;;;;;;;;;;-3.50;99.90;;;;;;5051143;28;19925;-78
2022/12/17 23:50:04;;;;;;;;;;;-3.50;99.90;;;;;;5052145;28;19928;-79
2022/12/17 23:52:30;;;;;;;;;;;-3.50;99.90;;;;;;5070692;28;20212;-84
2022/12/17 23:54:56;;;;;;;;;;;-3.50;99.90;;;;;;5053836;28;19928;-78
2022/12/17 23:57:21;;;;;;;;;;;-3.40;99.90;;;;;;5058141;28;19956;-78
2022/12/17 23:59:47;;;;;;;;;;;-3.50;99.90;;;;;;5056489;28;19928;-78
